createdAt,value
2018-05-21T11:48:40.665Z,1000.82
2018-05-21T11:49:40.655Z,1000.82
2018-05-21T11:50:40.693Z,1000.81
2018-05-21T11:51:40.623Z,1000.82
2018-05-21T11:52:40.654Z,1000.81
2018-05-21T11:53:40.597Z,1000.78
2018-05-21T11:54:40.588Z,1000.82
2018-05-21T11:55:40.579Z,1000.75
2018-05-21T11:56:40.568Z,1000.76
2018-05-21T11:57:40.559Z,1000.79
2018-05-21T11:58:40.559Z,1000.79
2018-05-21T11:59:40.556Z,1000.77
2018-05-21T12:00:40.530Z,1000.61
2018-05-21T12:01:40.523Z,1000.59
2018-05-21T12:02:40.583Z,1000.57
2018-05-21T12:03:40.533Z,1000.77
2018-05-21T12:04:40.489Z,1000.75
2018-05-21T12:05:40.522Z,1000.81
2018-05-21T12:06:40.480Z,1000.76
2018-05-21T12:07:40.604Z,1000.75
2018-05-21T12:36:20.659Z,1000.55
2018-05-21T12:37:20.627Z,1000.53
2018-05-21T12:38:20.605Z,1000.44
2018-05-21T12:39:20.593Z,1000.42
2018-05-21T12:40:20.584Z,1000.37
2018-05-21T12:41:20.565Z,1000.35
2018-05-21T12:42:20.550Z,1000.35
2018-05-21T12:43:20.549Z,1000.33
2018-05-21T12:44:20.527Z,1000.40
2018-05-21T12:45:20.507Z,1000.36
2018-05-21T12:46:20.502Z,1000.32
2018-05-21T12:47:20.489Z,1000.37
2018-05-21T12:48:20.493Z,1000.44
2018-05-21T12:49:20.473Z,1000.51
2018-05-21T12:50:20.460Z,1000.48
2018-05-21T12:51:20.451Z,1000.46
2018-05-21T12:52:20.445Z,1000.45
2018-05-21T12:53:20.429Z,1000.53
2018-05-21T12:54:20.437Z,1000.51
2018-05-21T12:55:20.416Z,1000.44
2018-05-21T12:56:20.417Z,1000.43
2018-05-21T12:57:20.408Z,1000.39
2018-05-21T12:58:20.408Z,1000.45
2018-05-21T12:59:20.399Z,1000.45
2018-05-21T13:00:20.392Z,1000.44
2018-05-21T13:01:20.441Z,1000.54
2018-05-21T13:02:20.384Z,1000.53
2018-05-21T13:03:20.379Z,1000.50
2018-05-21T13:04:20.376Z,1000.51
2018-05-21T13:05:20.401Z,1000.53
2018-05-21T13:06:20.368Z,1000.48
2018-05-21T13:07:20.365Z,1000.44
2018-05-21T13:08:20.362Z,1000.43
2018-05-21T13:09:20.361Z,1000.41
2018-05-21T13:10:20.357Z,1000.39
2018-05-21T13:11:20.355Z,1000.43
2018-05-21T13:12:20.353Z,1000.40
2018-05-21T13:13:20.353Z,1000.38
2018-05-21T13:14:20.372Z,1000.32
2018-05-21T13:15:20.358Z,1000.37
2018-05-21T13:16:20.350Z,1000.27
2018-05-21T13:17:20.350Z,1000.29
2018-05-21T13:18:20.350Z,1000.29
2018-05-21T13:19:20.346Z,1000.32
2018-05-21T13:20:20.344Z,1000.31
2018-05-21T13:21:20.339Z,1000.26
2018-05-21T13:22:20.343Z,1000.33
2018-05-21T13:23:20.342Z,1000.38
2018-05-21T13:24:20.365Z,1000.24
2018-05-21T13:25:20.337Z,1000.28
2018-05-21T13:26:20.347Z,1000.34
2018-05-21T13:27:20.335Z,1000.22
2018-05-21T13:28:20.336Z,1000.22
2018-05-21T13:29:20.342Z,1000.17
2018-05-21T13:30:20.330Z,1000.28
2018-05-21T13:31:20.328Z,1000.28
2018-05-21T13:32:20.329Z,1000.32
2018-05-21T13:33:20.321Z,1000.32
2018-05-21T13:34:20.320Z,1000.24
2018-05-21T13:35:20.321Z,1000.31
2018-05-21T13:36:20.320Z,1000.30
2018-05-21T13:37:20.313Z,1000.26
2018-05-21T13:38:20.312Z,1000.27
2018-05-21T13:39:20.306Z,1000.26
2018-05-21T13:40:20.312Z,1000.27
2018-05-21T13:41:20.307Z,1000.24
2018-05-21T13:42:20.306Z,1000.27
2018-05-21T13:43:20.404Z,1000.24
2018-05-21T13:44:20.309Z,1000.22
2018-05-21T13:45:20.306Z,1000.17
2018-05-21T13:46:20.304Z,1000.13
2018-05-21T13:47:20.300Z,1000.04
2018-05-21T13:48:20.311Z,1000.06
2018-05-21T13:49:20.296Z,1000.13
2018-05-21T13:50:20.304Z,1000.00
2018-05-21T13:51:20.302Z,1000.05
2018-05-21T13:52:20.407Z,1000.06
2018-05-21T13:53:20.306Z,1000.09
2018-05-21T13:54:20.305Z,1000.01
2018-05-21T13:55:20.312Z,999.94
2018-05-21T13:56:20.308Z,1000.01
2018-05-21T13:57:20.306Z,1000.04
2018-05-21T13:58:20.303Z,1000.00
2018-05-21T13:59:20.303Z,1000.02
2018-05-21T14:00:20.301Z,999.97
2018-05-21T14:01:20.307Z,1000.01
2018-05-21T14:02:20.307Z,1000.00
2018-05-21T14:03:20.322Z,999.94
2018-05-21T14:04:20.328Z,999.90
2018-05-21T14:05:20.325Z,999.91
2018-05-21T14:06:20.339Z,999.81
2018-05-21T14:07:20.318Z,999.88
2018-05-21T14:08:20.319Z,999.88
2018-05-21T14:09:20.315Z,999.85
2018-05-21T14:10:20.353Z,999.90
2018-05-21T14:11:20.352Z,999.90
2018-05-21T14:12:20.328Z,999.89
2018-05-21T14:13:20.330Z,999.86
2018-05-21T14:14:20.335Z,999.84
2018-05-21T14:15:20.327Z,999.78
2018-05-21T14:16:20.419Z,999.75
2018-05-21T14:17:20.363Z,999.83
2018-05-21T14:18:20.326Z,999.77
2018-05-21T14:19:20.324Z,999.70
2018-05-21T14:20:20.327Z,999.62
2018-05-21T14:21:20.329Z,999.70
2018-05-21T14:22:20.326Z,999.66
2018-05-21T14:23:20.335Z,999.66
2018-05-21T14:24:20.354Z,999.68
2018-05-21T14:25:20.418Z,999.65
2018-05-21T14:26:20.335Z,999.64
2018-05-21T14:27:20.337Z,999.59
2018-05-21T14:28:20.338Z,999.66
2018-05-21T14:29:20.336Z,999.65
2018-05-21T14:30:20.339Z,999.68
2018-05-21T14:31:20.331Z,999.68
2018-05-21T14:32:20.342Z,999.65
2018-05-21T14:33:20.439Z,999.63
2018-05-21T14:34:20.324Z,999.63
2018-05-21T14:35:20.321Z,999.65
2018-05-21T14:36:20.328Z,999.63
2018-05-21T14:37:20.335Z,999.53
2018-05-21T14:38:20.333Z,999.62
2018-05-21T14:39:20.333Z,999.55
2018-05-21T14:40:20.325Z,999.53
2018-05-21T14:41:20.338Z,999.52
2018-05-21T14:42:20.310Z,999.55
2018-05-21T14:43:20.326Z,999.48
2018-05-21T14:44:20.353Z,999.48
2018-05-21T14:45:20.308Z,999.44
2018-05-21T14:46:20.321Z,999.36
2018-05-21T14:47:20.314Z,999.37
2018-05-21T14:48:20.312Z,999.44
2018-05-21T14:49:20.302Z,999.41
2018-05-21T14:50:20.297Z,999.40
2018-05-21T14:51:20.292Z,999.42
2018-05-21T14:52:20.300Z,999.47
2018-05-21T14:53:20.288Z,999.42
2018-05-21T14:54:20.298Z,999.48
2018-05-21T14:55:20.287Z,999.45
2018-05-21T14:56:20.291Z,999.45
2018-05-21T14:57:20.298Z,999.38
2018-05-21T14:58:20.353Z,999.24
2018-05-21T14:59:20.272Z,999.23
2018-05-21T15:00:20.331Z,999.32
2018-05-21T15:01:20.277Z,999.29
2018-05-21T15:02:20.285Z,999.30
2018-05-21T15:03:20.262Z,999.23
2018-05-21T15:04:20.282Z,999.16
2018-05-21T15:05:20.255Z,999.14
2018-05-21T15:06:20.260Z,999.12
2018-05-21T15:07:20.259Z,999.23
2018-05-21T15:08:20.268Z,999.31
2018-05-21T15:09:20.259Z,999.22
2018-05-21T15:10:20.273Z,999.26
2018-05-21T15:11:20.258Z,999.22
2018-05-21T15:12:20.250Z,999.26
2018-05-21T15:13:20.245Z,999.29
2018-05-21T15:14:20.254Z,999.20
2018-05-21T15:15:20.240Z,999.17
2018-05-21T15:16:20.250Z,999.05
2018-05-21T15:17:20.246Z,999.08
2018-05-21T15:18:20.245Z,999.08
2018-05-21T15:19:20.236Z,999.12
2018-05-21T15:20:20.245Z,999.15
2018-05-21T15:21:20.251Z,999.10
2018-05-21T15:22:20.330Z,999.10
2018-05-21T15:23:20.229Z,999.06
2018-05-21T15:24:20.249Z,999.02
2018-05-21T15:25:20.235Z,999.04
2018-05-21T15:26:20.226Z,999.08
2018-05-21T15:27:20.228Z,999.04
2018-05-21T15:28:20.230Z,999.06
2018-05-21T15:29:20.232Z,999.02
2018-05-21T15:30:20.224Z,999.01
2018-05-21T15:31:20.250Z,999.06
2018-05-21T15:32:20.233Z,999.10
2018-05-21T15:33:20.214Z,999.09
2018-05-21T15:34:20.217Z,999.10
2018-05-21T15:35:20.213Z,999.07
2018-05-21T15:36:20.208Z,999.12
2018-05-21T15:37:20.213Z,999.08
2018-05-21T15:38:20.217Z,999.06
2018-05-21T15:39:20.208Z,999.04
2018-05-21T15:40:20.242Z,999.02
2018-05-21T15:41:20.192Z,998.99
2018-05-21T15:42:20.197Z,999.02
2018-05-21T15:43:20.267Z,999.04
2018-05-21T15:44:20.186Z,999.00
2018-05-21T15:45:20.177Z,998.98
2018-05-21T15:46:20.175Z,998.95
2018-05-21T15:47:20.182Z,998.98
2018-05-21T15:48:20.181Z,998.93
2018-05-21T15:49:20.191Z,998.94
2018-05-21T15:50:20.173Z,998.95
2018-05-21T15:51:20.168Z,998.92
2018-05-21T15:52:20.192Z,998.97
2018-05-21T15:53:20.172Z,998.88
2018-05-21T15:54:20.191Z,998.79
2018-05-21T15:55:20.180Z,998.79
2018-05-21T15:56:20.160Z,998.78
2018-05-21T15:57:20.153Z,998.82
2018-05-21T15:58:20.152Z,998.74
2018-05-21T15:59:20.142Z,998.72
2018-05-21T16:00:20.140Z,998.76
2018-05-21T16:01:20.138Z,998.76
2018-05-21T16:02:20.137Z,998.77
2018-05-21T16:03:20.150Z,998.76
2018-05-21T16:04:20.136Z,998.80
2018-05-21T16:05:20.131Z,998.78
2018-05-21T16:06:20.122Z,998.78
2018-05-21T16:07:20.134Z,998.82
2018-05-21T16:08:20.114Z,998.77
2018-05-21T16:09:20.117Z,998.76
2018-05-21T16:10:20.111Z,998.77
2018-05-21T16:11:20.107Z,998.76
2018-05-21T16:12:20.104Z,998.70
2018-05-21T16:13:20.099Z,998.70
2018-05-21T16:14:20.091Z,998.76
2018-05-21T16:15:20.084Z,998.76
2018-05-21T16:16:20.082Z,998.63
2018-05-21T16:17:20.074Z,998.68
2018-05-21T16:18:20.074Z,998.68
2018-05-21T16:19:20.069Z,998.69
2018-05-21T16:20:20.064Z,998.68
2018-05-21T16:21:20.061Z,998.71
2018-05-21T16:22:20.056Z,998.72
2018-05-21T16:23:20.099Z,998.67
2018-05-21T16:24:20.039Z,998.69
2018-05-21T16:25:20.049Z,998.67
2018-05-21T16:26:20.036Z,998.64
2018-05-21T16:27:20.019Z,998.63
2018-05-21T16:28:20.021Z,998.66
2018-05-21T16:29:20.005Z,998.61
2018-05-21T16:30:20.050Z,998.63
2018-05-21T16:31:20.003Z,998.62
2018-05-21T16:32:19.989Z,998.70
2018-05-21T16:33:19.991Z,998.61
2018-05-21T16:34:19.980Z,998.63
2018-05-21T16:35:19.973Z,998.63
2018-05-21T16:36:19.986Z,998.69
2018-05-21T16:37:19.995Z,998.61
2018-05-21T16:38:19.957Z,998.59
2018-05-21T16:39:19.944Z,998.65
2018-05-21T16:40:19.937Z,998.62
2018-05-21T16:41:19.935Z,998.66
2018-05-21T16:42:19.920Z,998.67
2018-05-21T16:43:19.915Z,998.60
2018-05-21T16:44:19.906Z,998.63
2018-05-21T16:45:19.903Z,998.63
2018-05-21T16:46:19.894Z,998.61
2018-05-21T16:47:19.897Z,998.62
2018-05-21T16:48:19.882Z,998.65
2018-05-21T16:49:19.871Z,998.67
2018-05-21T16:50:19.871Z,998.66
2018-05-21T16:51:19.865Z,998.66
2018-05-21T16:52:19.892Z,998.66
2018-05-21T16:53:19.865Z,998.61
2018-05-21T16:54:19.839Z,998.58
2018-05-21T16:55:19.860Z,998.64
2018-05-21T16:56:19.861Z,998.63
2018-05-21T16:57:19.835Z,998.66
2018-05-21T16:58:19.828Z,998.62
2018-05-21T16:59:19.803Z,998.62
2018-05-21T17:00:19.797Z,998.58
2018-05-21T17:01:19.775Z,998.60
2018-05-21T17:02:19.768Z,998.60
2018-05-21T17:03:19.761Z,998.60
2018-05-21T17:04:19.764Z,998.61
2018-05-21T17:05:19.743Z,998.58
2018-05-21T17:06:19.739Z,998.59
2018-05-21T17:07:19.846Z,998.60
2018-05-21T17:08:19.732Z,998.60
2018-05-21T17:09:19.708Z,998.56
2018-05-21T17:10:19.704Z,998.62
2018-05-21T17:11:19.694Z,998.58
2018-05-21T17:12:19.682Z,998.56
2018-05-21T17:13:19.705Z,998.55
2018-05-21T17:14:19.670Z,998.53
2018-05-21T17:15:19.674Z,998.53
2018-05-21T17:16:19.644Z,998.54
2018-05-21T17:17:19.646Z,998.51
2018-05-21T17:18:19.632Z,998.53
2018-05-21T17:19:19.621Z,998.54
2018-05-21T17:20:19.625Z,998.51
2018-05-21T17:21:19.603Z,998.50
2018-05-21T17:22:19.603Z,998.47
2018-05-21T17:23:19.600Z,998.49
2018-05-21T17:24:19.580Z,998.49
2018-05-21T17:25:19.569Z,998.52
2018-05-21T17:26:19.557Z,998.44
2018-05-21T17:27:19.547Z,998.53
2018-05-21T17:28:19.543Z,998.49
2018-05-21T17:29:19.549Z,998.48
2018-05-21T17:30:19.525Z,998.48
2018-05-21T17:31:19.513Z,998.48
2018-05-21T17:32:19.506Z,998.46
2018-05-21T17:33:19.489Z,998.51
2018-05-21T17:34:19.487Z,998.49
2018-05-21T17:35:19.481Z,998.49
2018-05-21T17:36:19.493Z,998.46
2018-05-21T17:37:19.458Z,998.48
2018-05-21T17:38:19.445Z,998.50
2018-05-21T17:39:19.440Z,998.46
2018-05-21T17:40:19.424Z,998.49
2018-05-21T17:41:19.422Z,998.50
2018-05-21T17:42:19.428Z,998.50
2018-05-21T17:43:19.403Z,998.45
2018-05-21T17:44:19.390Z,998.44
2018-05-21T17:45:19.409Z,998.42
2018-05-21T17:46:19.364Z,998.41
2018-05-21T17:47:19.401Z,998.39
2018-05-21T17:48:19.369Z,998.39
2018-05-21T17:49:19.389Z,998.44
2018-05-21T17:50:19.370Z,998.40
2018-05-21T17:51:19.325Z,998.42
2018-05-21T17:52:19.346Z,998.41
2018-05-21T17:53:19.319Z,998.42
2018-05-21T17:54:19.325Z,998.46
2018-05-21T17:55:19.317Z,998.43
2018-05-21T17:56:19.290Z,998.49
2018-05-21T17:57:19.288Z,998.50
2018-05-21T17:58:19.262Z,998.50
2018-05-21T17:59:19.249Z,998.48
2018-05-21T18:00:19.236Z,998.47
2018-05-21T18:01:19.239Z,998.49
2018-05-21T18:02:19.231Z,998.50
2018-05-21T18:03:19.319Z,998.51
2018-05-21T18:04:19.208Z,998.49
2018-05-21T18:05:19.196Z,998.50
2018-05-21T18:06:19.180Z,998.50
2018-05-21T18:07:19.171Z,998.49
2018-05-21T18:08:19.168Z,998.49
2018-05-21T18:09:19.157Z,998.48
2018-05-21T18:10:19.141Z,998.49
2018-05-21T18:11:19.147Z,998.49
2018-05-21T18:12:19.188Z,998.49
2018-05-21T18:13:19.138Z,998.55
2018-05-21T18:14:19.134Z,998.54
2018-05-21T18:15:19.099Z,998.52
2018-05-21T18:16:19.098Z,998.50
2018-05-21T18:17:19.081Z,998.52
2018-05-21T18:18:19.072Z,998.51
2018-05-21T18:19:19.057Z,998.53
2018-05-21T18:20:19.061Z,998.48
2018-05-21T18:21:19.164Z,998.49
2018-05-21T18:22:19.044Z,998.51
2018-05-21T18:23:19.019Z,998.48
2018-05-21T18:24:19.016Z,998.50
2018-05-21T18:25:19.005Z,998.48
2018-05-21T18:26:18.984Z,998.48
2018-05-21T18:27:18.973Z,998.48
2018-05-21T18:28:18.972Z,998.46
2018-05-21T18:29:18.969Z,998.44
2018-05-21T18:30:19.014Z,998.46
2018-05-21T18:31:18.940Z,998.48
2018-05-21T18:32:18.924Z,998.46
2018-05-21T18:33:18.920Z,998.46
2018-05-21T18:34:18.911Z,998.50
2018-05-21T18:35:18.901Z,998.50
2018-05-21T18:36:18.895Z,998.49
2018-05-21T18:37:18.875Z,998.54
2018-05-21T18:38:18.894Z,998.49
2018-05-21T18:39:18.856Z,998.49
2018-05-21T18:40:18.842Z,998.51
2018-05-21T18:41:18.835Z,998.50
2018-05-21T18:42:18.902Z,998.52
2018-05-21T18:43:18.822Z,998.51
2018-05-21T18:44:18.807Z,998.51
2018-05-21T18:45:18.796Z,998.47
2018-05-21T18:46:18.798Z,998.50
2018-05-21T18:47:18.781Z,998.54
2018-05-21T18:48:18.814Z,998.49
2018-05-21T18:49:18.743Z,998.51
2018-05-21T18:50:18.732Z,998.49
2018-05-21T18:51:18.722Z,998.48
2018-05-21T18:52:18.734Z,998.47
2018-05-21T18:53:18.710Z,998.47
2018-05-21T18:54:18.706Z,998.52
2018-05-21T18:55:18.684Z,998.52
2018-05-21T18:56:18.665Z,998.54
2018-05-21T18:57:18.705Z,998.52
2018-05-21T18:58:18.644Z,998.50
2018-05-21T18:59:18.650Z,998.51
2018-05-21T19:00:18.657Z,998.49
2018-05-21T19:01:18.634Z,998.46
2018-05-21T19:02:18.604Z,998.48
2018-05-21T19:03:18.596Z,998.46
2018-05-21T19:04:18.580Z,998.44
2018-05-21T19:05:18.568Z,998.48
2018-05-21T19:06:18.565Z,998.43
2018-05-21T19:07:18.547Z,998.46
2018-05-21T19:08:18.535Z,998.44
2018-05-21T19:09:18.528Z,998.47
2018-05-21T19:10:18.512Z,998.47
2018-05-21T19:11:18.497Z,998.43
2018-05-21T19:12:18.489Z,998.43
2018-05-21T19:13:18.474Z,998.40
2018-05-21T19:14:18.468Z,998.42
2018-05-21T19:15:18.566Z,998.44
2018-05-21T19:16:18.443Z,998.42
2018-05-21T19:17:18.435Z,998.43
2018-05-21T19:18:18.415Z,998.41
2018-05-21T19:19:18.409Z,998.43
2018-05-21T19:20:18.392Z,998.44
2018-05-21T19:21:18.388Z,998.48
2018-05-21T19:22:18.366Z,998.44
2018-05-21T19:23:18.366Z,998.47
2018-05-21T19:24:18.344Z,998.47
2018-05-21T19:25:18.337Z,998.44
2018-05-21T19:26:18.324Z,998.49
2018-05-21T19:27:18.313Z,998.49
2018-05-21T19:28:18.302Z,998.51
2018-05-21T19:29:18.288Z,998.52
2018-05-21T19:30:18.275Z,998.53
2018-05-21T19:31:18.265Z,998.58
2018-05-21T19:32:18.247Z,998.54
2018-05-21T19:33:18.240Z,998.52
2018-05-21T19:34:18.241Z,998.54
2018-05-21T19:35:18.215Z,998.57
2018-05-21T19:36:18.202Z,998.54
2018-05-21T19:37:18.190Z,998.53
2018-05-21T19:38:18.178Z,998.59
2018-05-21T19:39:18.171Z,998.59
2018-05-21T19:40:18.216Z,998.56
2018-05-21T19:41:18.133Z,998.59
2018-05-21T19:42:18.121Z,998.58
2018-05-21T19:43:18.117Z,998.58
2018-05-21T19:44:18.107Z,998.59
2018-05-21T19:45:18.088Z,998.57
2018-05-21T19:46:18.080Z,998.60
2018-05-21T19:47:18.062Z,998.62
2018-05-21T19:48:18.056Z,998.62
2018-05-21T19:49:18.036Z,998.60
2018-05-21T19:50:18.028Z,998.61
2018-05-21T19:51:18.009Z,998.62
2018-05-21T19:52:18.006Z,998.64
2018-05-21T19:53:18.001Z,998.64
2018-05-21T19:55:03.176Z,998.62
2018-05-21T19:56:03.156Z,998.63
2018-05-21T19:57:03.137Z,998.64
2018-05-21T19:58:03.122Z,998.66
2018-05-21T19:59:03.127Z,998.65
2018-05-21T20:00:03.101Z,998.66
2018-05-21T20:01:03.089Z,998.67
2018-05-21T20:02:03.077Z,998.70
2018-05-21T20:03:03.067Z,998.70
2018-05-21T20:04:03.051Z,998.72
2018-05-21T20:05:03.042Z,998.68
2018-05-21T20:06:03.022Z,998.67
2018-05-21T20:07:03.012Z,998.68
2018-05-21T20:08:03.003Z,998.71
2018-05-21T20:09:02.987Z,998.70
2018-05-21T20:10:02.986Z,998.65
2018-05-21T20:11:02.962Z,998.68
2018-05-21T20:12:02.949Z,998.64
2018-05-21T20:13:02.938Z,998.65
2018-05-21T20:14:02.928Z,998.69
2018-05-21T20:15:02.912Z,998.66
2018-05-21T20:16:02.899Z,998.66
2018-05-21T20:17:02.885Z,998.68
2018-05-21T20:18:02.868Z,998.65
2018-05-21T20:19:02.855Z,998.67
2018-05-21T20:20:02.840Z,998.66
2018-05-21T20:21:02.838Z,998.71
2018-05-21T20:22:02.827Z,998.72
2018-05-21T20:23:02.810Z,998.68
2018-05-21T20:24:02.876Z,998.68
2018-05-21T20:25:02.780Z,998.69
2018-05-21T20:26:02.771Z,998.70
2018-05-21T20:27:02.756Z,998.67
2018-05-21T20:28:02.747Z,998.68
2018-05-21T20:29:02.728Z,998.73
2018-05-21T20:30:02.712Z,998.71
2018-05-21T20:31:02.701Z,998.71
2018-05-21T20:32:02.697Z,998.75
2018-05-21T20:33:02.676Z,998.73
2018-05-21T20:34:02.658Z,998.73
2018-05-21T20:35:02.680Z,998.74
2018-05-21T20:36:02.643Z,998.69
2018-05-21T20:37:02.635Z,998.69
2018-05-21T20:38:02.620Z,998.71
2018-05-21T20:39:02.604Z,998.70
2018-05-21T20:40:02.574Z,998.69
2018-05-21T20:41:02.590Z,998.69
2018-05-21T20:42:02.555Z,998.68
2018-05-21T20:43:02.546Z,998.66
2018-05-21T20:44:02.530Z,998.65
2018-05-21T20:45:02.514Z,998.67
2018-05-21T20:46:02.506Z,998.67
2018-05-21T20:47:02.486Z,998.67
2018-05-21T20:48:02.499Z,998.68
2018-05-21T20:49:02.465Z,998.68
2018-05-21T20:50:02.450Z,998.65
2018-05-21T20:51:02.439Z,998.66
2018-05-21T20:52:02.417Z,998.67
2018-05-21T20:53:02.414Z,998.67
2018-05-21T20:54:02.394Z,998.66
2018-05-21T20:55:02.402Z,998.67
2018-05-21T20:56:02.405Z,998.63
2018-05-21T20:57:02.379Z,998.66
2018-05-21T20:58:02.334Z,998.64
2018-05-21T20:59:02.436Z,998.66
2018-05-21T21:00:02.327Z,998.63
2018-05-21T21:01:02.302Z,998.66
2018-05-21T21:02:02.291Z,998.67
2018-05-21T21:03:02.277Z,998.67
2018-05-21T21:04:02.260Z,998.72
2018-05-21T21:05:02.245Z,998.67
2018-05-21T21:06:02.235Z,998.66
2018-05-21T21:07:02.217Z,998.70
2018-05-21T21:08:02.211Z,998.67
2018-05-21T21:09:02.198Z,998.69
2018-05-21T21:10:02.180Z,998.68
2018-05-21T21:11:02.195Z,998.67
2018-05-21T21:12:02.149Z,998.68
2018-05-21T21:13:02.142Z,998.66
2018-05-21T21:14:02.127Z,998.67
2018-05-21T21:15:02.154Z,998.68
2018-05-21T21:16:02.091Z,998.68
2018-05-21T21:17:02.082Z,998.69
2018-05-21T21:18:02.080Z,998.67
2018-05-21T21:19:02.063Z,998.68
2018-05-21T21:20:02.047Z,998.72
2018-05-21T21:21:02.024Z,998.69
2018-05-21T21:22:02.018Z,998.69
2018-05-21T21:23:02.014Z,998.67
2018-05-21T21:24:02.003Z,998.66
2018-05-21T21:25:02.052Z,998.67
2018-05-21T21:26:01.963Z,998.67
2018-05-21T21:27:01.943Z,998.63
2018-05-21T21:28:01.941Z,998.69
2018-05-21T21:29:01.921Z,998.67
2018-05-21T21:30:01.909Z,998.64
2018-05-21T21:31:01.892Z,998.67
2018-05-21T21:32:01.891Z,998.68
2018-05-21T21:33:01.867Z,998.69
2018-05-21T21:34:01.849Z,998.72
2018-05-21T21:35:01.836Z,998.73
2018-05-21T21:36:01.823Z,998.76
2018-05-21T21:37:01.809Z,998.77
2018-05-21T21:38:01.794Z,998.78
2018-05-21T21:39:01.784Z,998.79
2018-05-21T21:40:01.777Z,998.78
2018-05-21T21:41:01.752Z,998.82
2018-05-21T21:42:01.738Z,998.84
2018-05-21T21:43:01.724Z,998.86
2018-05-21T21:44:01.723Z,998.84
2018-05-21T21:45:01.700Z,998.86
2018-05-21T21:46:01.681Z,998.84
2018-05-21T21:47:01.672Z,998.86
2018-05-21T21:48:01.652Z,998.84
2018-05-21T21:49:01.644Z,998.84
2018-05-21T21:50:01.626Z,998.85
2018-05-21T21:51:01.615Z,998.88
2018-05-21T21:52:01.603Z,998.84
2018-05-21T21:53:01.584Z,998.84
2018-05-21T21:54:01.601Z,998.84
2018-05-21T21:55:01.575Z,998.79
2018-05-21T21:56:01.577Z,998.80
2018-05-21T21:57:01.529Z,998.80
2018-05-21T21:58:01.566Z,998.80
2018-05-21T21:59:01.517Z,998.77
2018-05-21T22:00:01.503Z,998.75
2018-05-21T22:01:01.490Z,998.74
2018-05-21T22:02:01.462Z,998.73
2018-05-21T22:03:01.461Z,998.72
2018-05-21T22:04:01.429Z,998.75
2018-05-21T22:05:01.412Z,998.70
2018-05-21T22:06:01.419Z,998.70
2018-05-21T22:07:01.407Z,998.67
2018-05-21T22:08:01.412Z,998.71
2018-05-21T22:09:01.380Z,998.73
2018-05-21T22:10:01.346Z,998.70
2018-05-21T22:11:01.330Z,998.69
2018-05-21T22:12:01.314Z,998.72
2018-05-21T22:13:01.298Z,998.73
2018-05-21T22:14:01.283Z,998.74
2018-05-21T22:15:01.272Z,998.71
2018-05-21T22:16:01.315Z,998.72
2018-05-21T22:17:01.264Z,998.65
2018-05-21T22:18:01.236Z,998.64
2018-05-21T22:19:01.231Z,998.60
2018-05-21T22:20:01.204Z,998.60
2018-05-21T22:21:01.187Z,998.62
2018-05-21T22:22:01.171Z,998.60
2018-05-21T22:23:01.159Z,998.57
2018-05-21T22:24:01.151Z,998.59
2018-05-21T22:25:01.124Z,998.51
2018-05-21T22:26:01.115Z,998.47
2018-05-21T22:27:01.118Z,998.47
2018-05-21T22:28:01.106Z,998.51
2018-05-21T22:29:01.080Z,998.50
2018-05-21T22:30:01.060Z,998.53
2018-05-21T22:31:01.045Z,998.58
2018-05-21T22:32:01.027Z,998.55
2018-05-21T22:33:01.019Z,998.53
2018-05-21T22:34:01.001Z,998.52
2018-05-21T22:35:00.982Z,998.50
2018-05-21T22:36:00.981Z,998.53
2018-05-21T22:37:00.952Z,998.57
2018-05-21T22:38:00.934Z,998.55
2018-05-21T22:39:00.934Z,998.56
2018-05-21T22:40:00.912Z,998.60
2018-05-21T22:41:00.906Z,998.59
2018-05-21T22:42:00.887Z,998.60
2018-05-21T22:43:00.875Z,998.56
2018-05-21T22:44:00.861Z,998.58
2018-05-21T22:45:00.840Z,998.61
2018-05-21T22:46:00.829Z,998.59
2018-05-21T22:47:00.829Z,998.63
2018-05-21T22:48:00.798Z,998.60
2018-05-21T22:49:00.787Z,998.62
2018-05-21T22:50:00.767Z,998.66
2018-05-21T22:51:00.756Z,998.64
2018-05-21T22:52:00.747Z,998.67
2018-05-21T22:53:00.730Z,998.67
2018-05-21T22:54:00.719Z,998.65
2018-05-21T22:55:00.701Z,998.66
2018-05-21T22:56:00.686Z,998.65
2018-05-21T22:57:00.680Z,998.63
2018-05-21T22:58:00.662Z,998.66
2018-05-21T22:59:00.647Z,998.69
2018-05-21T23:00:00.626Z,998.64
2018-05-21T23:01:00.621Z,998.66
2018-05-21T23:02:00.596Z,998.62
2018-05-21T23:03:00.646Z,998.63
2018-05-21T23:04:00.562Z,998.63
2018-05-21T23:05:00.570Z,998.60
2018-05-21T23:06:00.552Z,998.58
2018-05-21T23:07:00.525Z,998.63
2018-05-21T23:08:00.512Z,998.60
2018-05-21T23:09:00.496Z,998.62
2018-05-21T23:10:00.479Z,998.56
2018-05-21T23:11:00.470Z,998.59
2018-05-21T23:12:00.462Z,998.56
2018-05-21T23:13:00.436Z,998.60
2018-05-21T23:14:00.422Z,998.60
2018-05-21T23:15:00.408Z,998.57
2018-05-21T23:16:00.393Z,998.61
2018-05-21T23:17:00.379Z,998.56
2018-05-21T23:18:00.369Z,998.59
2018-05-21T23:19:00.350Z,998.54
2018-05-21T23:20:00.332Z,998.56
2018-05-21T23:21:00.317Z,998.55
2018-05-21T23:22:00.306Z,998.53
2018-05-21T23:23:00.294Z,998.53
2018-05-21T23:24:00.272Z,998.54
2018-05-21T23:25:00.260Z,998.53
2018-05-21T23:26:00.264Z,998.53
2018-05-21T23:27:00.235Z,998.57
2018-05-21T23:28:00.218Z,998.52
2018-05-21T23:29:00.250Z,998.51
2018-05-21T23:30:00.188Z,998.52
2018-05-21T23:31:00.166Z,998.52
2018-05-21T23:32:00.175Z,998.52
2018-05-21T23:33:00.143Z,998.52
2018-05-21T23:34:00.135Z,998.49
2018-05-21T23:35:00.112Z,998.48
2018-05-21T23:36:00.110Z,998.51
2018-05-21T23:37:00.079Z,998.52
2018-05-21T23:38:00.086Z,998.52
2018-05-21T23:39:00.051Z,998.52
2018-05-21T23:40:00.035Z,998.50
2018-05-21T23:41:00.036Z,998.49
2018-05-21T23:42:00.010Z,998.55
2018-05-21T23:42:59.990Z,998.54
2018-05-21T23:43:59.979Z,998.54
2018-05-21T23:44:59.986Z,998.55
2018-05-21T23:45:59.952Z,998.58
2018-05-21T23:46:59.941Z,998.56
2018-05-21T23:47:59.923Z,998.60
2018-05-21T23:48:59.908Z,998.60
2018-05-21T23:49:59.893Z,998.58
2018-05-21T23:50:59.965Z,998.59
2018-05-21T23:51:59.863Z,998.60
2018-05-21T23:52:59.851Z,998.60
2018-05-21T23:53:59.838Z,998.59
2018-05-21T23:54:59.828Z,998.60
2018-05-21T23:55:59.820Z,998.63
2018-05-21T23:56:59.790Z,998.61
2018-05-21T23:57:59.780Z,998.55
2018-05-21T23:58:59.770Z,998.57
2018-05-21T23:59:59.763Z,998.57
